Detall de PIREP

Printer-friendly versionPDF version

[2010/09/30 15:54:00]
Flight IATA:CT3232
Pilot Number:042
Company ICAO:CAT
Aircraft Type:B763/F
PAX:120
Departing Airport: LEPA
Destination Airport: LEMD
Alternate Airport:LEMG
Online: VATSIM
Route:TURIA UN733 PRADO
Flight Level:FL330
No Slew and time accel
No pause
Crash detect
Detect pilot in Cockpit between each 30 and 45 minutes
15:54 Zero fuel Weight: 244977 Lbs, Fuel Weight: 160796 Lbs
15:54 VATSIM:LEPA 301530Z 21010KT 9999 FEW020 SCT030 25/17 Q1016 NOSIG
15:54 VATSIM:LEMD 301530Z 25010G30KT 220V330 CAVOK 26/05 Q1016 NOSIG
15:55 VOICE CATALONIAN
16:02 Parking Brakes off
16:11 Take-off
16:11 Take off Weight: 402145 Lbs
16:11 Wind: 212 @ 010 Knots Heading: 237
16:11 POS N39 33 07 E002 43 16
16:11 Gear Up: 189 Knots
16:11 Flaps:3 at 189 Knots
16:11 Flaps:2 at 190 Knots
16:11 Flaps:1 at 193 Knots
16:12 Flaps:0 at 230 Knots
16:26 Wind:278@047 Knots Heading: 271 Ground Speed: 426 Knots Altitude 32929 ft
16:26 TOC
16:26 Fuel Weight: 149328 Lb
16:39 TOD
16:39 Fuel Weight: 146621 Lb
16:41 Wind:289@039 Knots Heading: 298 Ground Speed: 381 Knots Altitude 30052 ft
16:55 Flaps:1 at 234 Knots
16:56 Wind:271@022 Knots Heading: 290 Ground Speed: 265 Knots Altitude 16043 ft
17:01 Flaps:2 at 219 Knots
17:02 Flaps:1 at 220 Knots
17:03 Flaps:2 at 221 Knots
17:08 Flaps:3 at 213 Knots
17:08 Flaps:4 at 212 Knots
17:08 Flaps:5 at 210 Knots
17:08 Gear Down: 209 Knots
17:08 Flaps:6 at 203 Knots
17:09 Flaps:4 at 168 Knots
17:09 Flaps:6 at 167 Knots
17:09 Flaps:4 at 167 Knots
17:09 Flaps:6 at 167 Knots
17:09 Flaps:4 at 167 Knots
17:09 Flaps:6 at 167 Knots
17:11 Wind:274@011 Knots Heading: 183 Ground Speed: 171 Knots Altitude 2867 ft
17:12 TouchDown:Rate -168 ft/min Speed: 138 Knots
17:12 VATSIM:LEMD 301700Z 24012KT 210V270 CAVOK 26/04 Q1015 NOSIG
17:12 Land
17:12 Wind:245@011 Knots
17:12 Heading: 178
17:12 Flight Duration: 01:01
17:12 Landing Weight: 387037 Lbs
17:12 POS N40 30 27 W003 33 33
17:19 Parking brakes on
17:19 Block to Block Duration: 01:17
17:19 Final Fuel: 141021 Lbls
17:19 Spent Fuel: 19775 Lbls
17:19 Flight Length: 341 NM
17:19 TOD Land Length: 157 NM

Exportar CSV

Powered by Drupal - Modified by Danger4k